createdAt,value
2023-02-24T00:01:19.379Z,61.20
2023-02-24T00:06:24.216Z,75.38
2023-02-24T00:11:28.309Z,48.97
2023-02-24T00:16:33.413Z,51.97
2023-02-24T00:21:37.602Z,50.40
2023-02-24T00:26:41.701Z,87.32
2023-02-24T00:31:47.369Z,59.53
2023-02-24T00:36:51.294Z,65.68
2023-02-24T00:41:58.812Z,75.10
2023-02-24T00:47:05.076Z,74.13
2023-02-24T00:52:18.276Z,60.95
2023-02-24T00:57:22.246Z,64.15
2023-02-24T01:02:27.454Z,76.40
2023-02-24T01:07:31.303Z,69.68
2023-02-24T01:12:50.888Z,71.10
2023-02-24T01:17:55.326Z,46.10
2023-02-24T01:22:59.252Z,53.40
2023-02-24T01:28:04.361Z,57.15
2023-02-24T01:33:08.534Z,48.90
2023-02-24T01:38:12.382Z,37.10
2023-02-24T01:43:17.498Z,34.17
2023-02-24T01:48:22.186Z,29.90
2023-02-24T01:53:25.724Z,44.85
2023-02-24T01:58:30.471Z,49.55
2023-02-24T02:03:37.353Z,40.60
2023-02-24T02:08:43.874Z,65.88
2023-02-24T02:13:50.679Z,43.45
2023-02-24T02:19:40.321Z,37.60
2023-02-24T02:24:46.797Z,36.60
2023-02-24T02:30:29.862Z,50.10
2023-02-24T02:36:14.674Z,54.95
2023-02-24T02:41:35.313Z,85.55
2023-02-24T02:46:45.101Z,83.10
2023-02-24T02:52:13.862Z,63.03
2023-02-24T02:57:29.197Z,67.20
2023-02-24T03:02:40.210Z,77.90
2023-02-24T03:07:51.828Z,43.22
2023-02-24T03:13:00.116Z,42.95
2023-02-24T03:18:11.009Z,89.55
2023-02-24T03:23:27.516Z,63.00
2023-02-24T03:28:40.312Z,68.00
2023-02-24T03:34:08.365Z,61.72
2023-02-24T03:39:12.645Z,64.50
2023-02-24T03:44:25.109Z,45.20
2023-02-24T03:49:30.533Z,52.22
2023-02-24T03:54:48.831Z,49.33
2023-02-24T04:00:23.350Z,109.38
2023-02-24T04:05:34.618Z,91.95
2023-02-24T04:11:11.398Z,71.35
2023-02-24T04:16:28.237Z,78.35
2023-02-24T04:21:34.001Z,49.67
2023-02-24T04:26:41.022Z,91.13
2023-02-24T04:31:54.889Z,107.55
2023-02-24T04:37:02.928Z,106.75
2023-02-24T04:42:07.560Z,105.03
2023-02-24T04:47:12.456Z,59.28
2023-02-24T04:52:20.846Z,98.07
2023-02-24T04:57:25.203Z,110.95
2023-02-24T05:02:29.046Z,72.05
2023-02-24T05:07:33.714Z,54.88
2023-02-24T05:12:40.811Z,74.85
2023-02-24T05:17:45.214Z,59.38
2023-02-24T05:22:53.182Z,37.75
2023-02-24T05:27:58.097Z,46.67
2023-02-24T05:33:03.717Z,49.33
2023-02-24T05:38:08.506Z,64.15
2023-02-24T05:43:16.231Z,59.53
2023-02-24T05:48:20.134Z,63.90
2023-02-24T05:53:24.340Z,54.30
2023-02-24T05:58:29.206Z,36.55
2023-02-24T06:03:36.133Z,44.30
2023-02-24T06:08:43.845Z,87.75
2023-02-24T06:13:49.044Z,101.00
2023-02-24T06:18:57.014Z,60.30
2023-02-24T06:24:01.045Z,67.63
2023-02-24T06:29:06.705Z,53.03
2023-02-24T06:34:14.496Z,65.45
2023-02-24T06:39:19.097Z,75.90
2023-02-24T06:44:24.485Z,85.53
2023-02-24T06:49:30.710Z,90.53
2023-02-24T06:54:36.343Z,115.00
2023-02-24T06:59:40.543Z,119.38
2023-02-24T07:04:44.748Z,108.70
2023-02-24T07:09:49.380Z,104.32
2023-02-24T07:14:54.851Z,82.07
2023-02-24T07:20:04.087Z,124.20
2023-02-24T07:25:08.141Z,136.55
2023-02-24T07:30:12.644Z,88.03
2023-02-24T07:35:16.870Z,79.78
2023-02-24T07:40:22.629Z,85.13
2023-02-24T07:45:26.685Z,89.38
2023-02-24T07:50:33.312Z,102.82
2023-02-24T07:55:37.323Z,115.75
2023-02-24T08:00:51.255Z,77.43
2023-02-24T08:06:13.336Z,94.00
2023-02-24T08:16:22.438Z,107.88
2023-02-24T08:21:27.464Z,112.15
2023-02-24T08:26:33.045Z,114.22
2023-02-24T08:31:37.109Z,101.82
2023-02-24T08:36:48.113Z,97.53
2023-02-24T08:41:54.520Z,78.18
2023-02-24T08:46:58.725Z,111.75
2023-02-24T08:52:02.962Z,98.13
2023-02-24T08:57:10.054Z,102.47
2023-02-24T09:02:24.257Z,94.13
2023-02-24T09:07:36.136Z,109.32
2023-02-24T09:12:42.777Z,85.13
2023-02-24T09:17:46.588Z,93.80
2023-02-24T09:23:12.001Z,129.18
2023-02-24T09:28:18.323Z,97.57
2023-02-24T09:33:30.075Z,81.85
2023-02-24T09:38:51.805Z,68.63
2023-02-24T09:44:00.483Z,102.90
2023-02-24T09:49:40.260Z,101.05
2023-02-24T09:55:14.054Z,86.15
2023-02-24T10:00:26.395Z,101.60
2023-02-24T10:05:49.556Z,116.35
2023-02-24T10:11:10.079Z,123.07
2023-02-24T10:16:24.393Z,104.90
2023-02-24T10:22:00.499Z,127.05
2023-02-24T10:27:17.310Z,86.75
2023-02-24T10:32:50.242Z,91.57
2023-02-24T10:37:59.622Z,122.10
2023-02-24T10:43:11.070Z,118.03
2023-02-24T10:48:43.100Z,96.00
2023-02-24T10:53:53.617Z,85.80
2023-02-24T10:59:25.150Z,80.87
2023-02-24T11:05:04.825Z,103.90
2023-02-24T11:10:26.421Z,116.10
2023-02-24T11:16:02.513Z,83.75
2023-02-24T11:21:10.469Z,71.25
2023-02-24T11:26:19.435Z,86.32
2023-02-24T11:31:52.761Z,88.22
2023-02-24T11:37:16.495Z,81.93
2023-02-24T11:42:33.031Z,87.90
2023-02-24T11:47:44.269Z,74.80
2023-02-24T11:52:52.937Z,52.17
2023-02-24T11:57:59.433Z,53.10
2023-02-24T12:03:37.649Z,56.72
2023-02-24T12:08:45.155Z,75.25
2023-02-24T12:14:00.005Z,61.03
2023-02-24T12:19:15.439Z,74.60
2023-02-24T12:24:22.044Z,67.40
2023-02-24T12:29:49.437Z,66.07
2023-02-24T12:35:34.423Z,65.35
2023-02-24T12:40:58.645Z,82.57
2023-02-24T12:46:24.037Z,65.72
2023-02-24T12:51:46.662Z,60.35
2023-02-24T12:57:03.990Z,69.68
2023-02-24T13:02:24.426Z,53.95
2023-02-24T13:07:37.631Z,72.03
2023-02-24T13:13:10.147Z,56.35
2023-02-24T13:18:27.808Z,55.10
2023-02-24T13:23:32.528Z,68.70
2023-02-24T13:28:38.715Z,73.95
2023-02-24T13:33:44.618Z,69.15
2023-02-24T13:38:54.288Z,70.53
2023-02-24T13:44:01.190Z,68.57
2023-02-24T13:49:30.671Z,72.95
2023-02-24T13:54:53.028Z,76.15
2023-02-24T14:00:28.888Z,75.63
2023-02-24T14:05:36.746Z,73.88
2023-02-24T14:10:46.068Z,80.10
2023-02-24T14:15:50.184Z,75.75
2023-02-24T14:20:55.888Z,91.15
2023-02-24T14:26:11.869Z,103.35
2023-02-24T14:31:17.608Z,99.18
2023-02-24T14:36:25.427Z,104.20
2023-02-24T14:41:29.539Z,105.35
2023-02-24T14:46:33.632Z,110.90
2023-02-24T14:51:37.931Z,102.88
2023-02-24T14:56:41.770Z,104.72
2023-02-24T15:01:49.793Z,81.53
2023-02-24T15:06:53.900Z,83.00
2023-02-24T15:11:58.529Z,87.90
2023-02-24T15:17:10.510Z,92.63
2023-02-24T15:22:22.436Z,98.07
2023-02-24T15:27:28.876Z,85.40
2023-02-24T15:32:35.375Z,77.93
2023-02-24T15:37:45.277Z,70.60
2023-02-24T15:42:56.372Z,74.20
2023-02-24T15:48:03.164Z,70.45
2023-02-24T15:53:09.541Z,51.30
2023-02-24T15:58:22.932Z,56.88
2023-02-24T16:03:26.678Z,53.85
2023-02-24T16:08:30.971Z,50.65
2023-02-24T16:13:35.868Z,41.30
2023-02-24T16:18:44.064Z,58.85
2023-02-24T16:23:48.850Z,41.60
2023-02-24T16:28:55.414Z,37.80
2023-02-24T16:33:59.401Z,56.35
2023-02-24T16:39:06.541Z,44.15
2023-02-24T16:44:11.314Z,40.53
2023-02-24T16:49:20.399Z,28.63
2023-02-24T16:54:29.636Z,50.42
2023-02-24T16:59:33.603Z,35.42
2023-02-24T17:04:38.021Z,50.83
2023-02-24T17:09:41.876Z,61.85
2023-02-24T17:14:46.046Z,54.80
2023-02-24T17:19:51.941Z,51.08
2023-02-24T17:24:56.146Z,43.20
2023-02-24T17:30:00.325Z,41.63
2023-02-24T17:35:05.986Z,29.55
2023-02-24T17:40:14.647Z,43.10
2023-02-24T17:45:19.302Z,35.00
2023-02-24T17:50:23.193Z,28.98
2023-02-24T17:55:27.524Z,50.38
2023-02-24T18:00:31.791Z,36.53
2023-02-24T18:05:37.536Z,43.00
2023-02-24T18:10:42.627Z,40.65
2023-02-24T18:15:47.442Z,42.08
2023-02-24T18:20:53.461Z,62.58
2023-02-24T18:26:03.594Z,61.92
2023-02-24T18:31:31.149Z,46.22
2023-02-24T18:36:36.237Z,46.85
2023-02-24T18:41:41.830Z,58.60
2023-02-24T18:46:46.536Z,62.08
2023-02-24T18:51:51.683Z,61.97
2023-02-24T18:56:56.520Z,44.78
